Time;durP1;ratioP1;P1;durP2;ratioP2;P2;SDS_P1;SDS_P2;PMS_P1;PMS_P2;Temp;Humidity;BMP_temperature;BMP_pressure;BME280_temperature;BME280_humidity;BME280_pressure;Samples;Min_cycle;Max_cycle;Signal;HPM_P1;HPM_P2
2022/03/04 00:02:52;;;;;;;21.15;12.50;;;-1.30;83.30;;;;;;6164351;23;20075;-84
2022/03/04 00:05:42;;;;;;;21.65;12.50;;;-1.20;82.90;;;;;;6186461;23;20024;-85
2022/03/04 00:08:29;;;;;;;26.92;14.20;;;-1.10;82.10;;;;;;6186440;23;20070;-85
2022/03/04 00:11:20;;;;;;;21.92;12.82;;;-1.00;81.80;;;;;;6184483;23;20437;-85
2022/03/04 00:14:10;;;;;;;25.90;13.38;;;-1.00;81.40;;;;;;6183967;23;20036;-85
2022/03/04 00:16:59;;;;;;;23.85;13.38;;;-1.00;81.40;;;;;;6186063;23;20025;-84
2022/03/04 00:19:56;;;;;;;28.77;13.82;;;-1.10;83.20;;;;;;6185425;23;20029;-84
2022/03/04 00:22:44;;;;;;;25.95;13.05;;;-1.20;84.10;;;;;;6182780;23;20021;-84
2022/03/04 00:25:32;;;;;;;27.25;13.77;;;-1.10;83.70;;;;;;6182162;23;20025;-85
2022/03/04 00:28:22;;;;;;;28.52;14.02;;;-1.00;83.00;;;;;;6186351;23;20056;-85
2022/03/04 00:34:20;;;;;;;27.40;13.60;;;-1.00;83.80;;;;;;6187000;23;20105;-84
2022/03/04 00:37:08;;;;;;;26.83;14.30;;;-1.10;84.30;;;;;;6164285;23;20029;-85
2022/03/04 00:39:56;;;;;;;25.17;13.52;;;-1.00;86.10;;;;;;6164580;23;20144;-85
2022/03/04 00:42:44;;;;;;;26.30;14.38;;;-1.00;84.90;;;;;;6186406;23;20313;-85
2022/03/04 00:45:31;;;;;;;30.00;14.57;;;-1.10;85.80;;;;;;6185394;23;20384;-84
2022/03/04 00:48:20;;;;;;;31.17;13.85;;;-1.20;85.50;;;;;;6187110;23;20059;-85
2022/03/04 00:51:08;;;;;;;30.25;15.68;;;-1.30;87.10;;;;;;6190205;23;20033;-84
2022/03/04 00:53:55;;;;;;;27.83;14.85;;;-1.50;89.00;;;;;;6185969;23;20389;-84
2022/03/04 00:56:44;;;;;;;33.20;15.75;;;-1.60;90.60;;;;;;6186098;23;20033;-85
2022/03/04 00:59:31;;;;;;;29.40;15.20;;;-1.60;91.10;;;;;;6187357;23;20088;-84
2022/03/04 01:02:21;;;;;;;29.73;13.93;;;-1.70;92.60;;;;;;6186506;23;20065;-84
2022/03/04 01:05:08;;;;;;;27.75;14.50;;;-1.80;93.30;;;;;;6185978;23;20092;-84
2022/03/04 01:07:58;;;;;;;26.92;15.07;;;-1.90;93.20;;;;;;6185120;23;20071;-84
2022/03/04 01:10:45;;;;;;;27.35;15.05;;;-1.90;92.80;;;;;;6186138;23;20037;-84
2022/03/04 01:13:33;;;;;;;27.33;15.55;;;-2.00;93.10;;;;;;6164271;23;20352;-84
2022/03/04 01:16:20;;;;;;;25.88;14.85;;;-2.00;93.40;;;;;;6187091;23;20025;-83
2022/03/04 01:19:07;;;;;;;28.33;15.65;;;-2.10;94.50;;;;;;6186530;23;20025;-84
2022/03/04 01:21:57;;;;;;;27.48;14.45;;;-2.10;95.80;;;;;;6185617;23;20397;-84
2022/03/04 01:24:46;;;;;;;29.60;15.20;;;-2.20;96.80;;;;;;6165353;23;20025;-84
2022/03/04 01:27:34;;;;;;;27.70;14.52;;;-2.30;98.20;;;;;;6186292;23;20135;-83
2022/03/04 01:30:23;;;;;;;27.00;13.85;;;-2.30;99.70;;;;;;6185136;23;20043;-83
2022/03/04 01:33:13;;;;;;;26.75;15.13;;;-2.30;99.90;;;;;;6184922;23;20036;-83
2022/03/04 01:36:00;;;;;;;25.80;13.90;;;-2.40;99.90;;;;;;6184575;23;20028;-85
2022/03/04 01:38:48;;;;;;;30.00;15.90;;;-2.40;99.90;;;;;;6162055;23;20024;-84
2022/03/04 01:41:37;;;;;;;27.17;14.90;;;-2.40;99.90;;;;;;6185442;23;20043;-84
2022/03/04 01:44:24;;;;;;;25.70;12.98;;;-2.40;99.90;;;;;;6184851;23;20124;-84
2022/03/04 01:47:12;;;;;;;28.45;13.80;;;-2.40;99.90;;;;;;6183657;23;20039;-85
2022/03/04 01:50:00;;;;;;;30.20;15.23;;;-2.30;99.90;;;;;;6185543;23;20293;-84
2022/03/04 01:52:47;;;;;;;24.90;13.55;;;-2.30;99.90;;;;;;6183161;23;20021;-84
2022/03/04 01:55:34;;;;;;;26.85;13.70;;;-2.30;99.90;;;;;;6184164;23;20040;-84
2022/03/04 01:58:24;;;;;;;23.27;13.90;;;-2.40;99.90;;;;;;6163917;23;20021;-84
2022/03/04 02:01:12;;;;;;;28.92;14.63;;;-2.40;99.90;;;;;;6186068;23;20040;-84
2022/03/04 02:04:00;;;;;;;29.50;15.02;;;-2.50;99.90;;;;;;6184786;23;20033;-84
2022/03/04 02:06:47;;;;;;;31.30;15.23;;;-2.50;99.90;;;;;;6185763;23;20112;-83
2022/03/04 02:09:37;;;;;;;28.35;14.38;;;-2.60;99.90;;;;;;6184253;23;20389;-84
2022/03/04 02:12:24;;;;;;;27.35;15.25;;;-2.60;99.90;;;;;;6184782;23;20078;-84
2022/03/04 02:15:12;;;;;;;30.65;15.25;;;-2.70;99.90;;;;;;6161926;23;20035;-82
2022/03/04 02:17:59;;;;;;;35.55;15.60;;;-2.70;99.90;;;;;;6161901;23;20025;-84
2022/03/04 02:20:52;;;;;;;29.63;15.30;;;-2.60;99.90;;;;;;6161895;23;20025;-84
2022/03/04 02:23:42;;;;;;;25.98;14.80;;;-2.60;99.90;;;;;;6182773;23;20031;-83
2022/03/04 02:26:29;;;;;;;27.58;14.98;;;-2.60;99.90;;;;;;6184130;23;20033;-83
2022/03/04 02:29:22;;;;;;;30.88;15.57;;;-2.70;99.90;;;;;;6184945;23;20310;-83
2022/03/04 02:32:09;;;;;;;28.17;13.95;;;-2.70;99.90;;;;;;6161774;23;20043;-84
2022/03/04 02:34:57;;;;;;;28.88;15.73;;;-2.70;99.90;;;;;;6186335;23;20129;-83
2022/03/04 02:37:47;;;;;;;31.13;14.52;;;-2.70;99.90;;;;;;6184623;23;20415;-86
2022/03/04 02:40:34;;;;;;;30.67;15.48;;;-2.60;99.90;;;;;;6161901;23;20025;-84
2022/03/04 02:43:24;;;;;;;28.98;14.75;;;-2.50;99.90;;;;;;6184802;23;20032;-84
2022/03/04 02:46:13;;;;;;;28.77;14.75;;;-2.50;99.90;;;;;;6183412;23;20033;-84
2022/03/04 02:49:00;;;;;;;31.33;15.85;;;-2.50;99.90;;;;;;6185281;23;20128;-83
2022/03/04 02:51:50;;;;;;;24.67;14.55;;;-2.50;99.90;;;;;;6184298;23;20025;-83
2022/03/04 02:54:37;;;;;;;33.60;16.10;;;-2.60;99.90;;;;;;6184236;23;20483;-84
2022/03/04 02:57:25;;;;;;;28.95;16.27;;;-2.60;99.90;;;;;;6161475;23;20436;-83
2022/03/04 03:00:14;;;;;;;31.15;15.80;;;-2.60;99.90;;;;;;6161485;23;20052;-84
2022/03/04 03:03:02;;;;;;;30.58;15.68;;;-2.70;99.90;;;;;;6183584;23;20056;-83
2022/03/04 03:05:55;;;;;;;31.77;16.02;;;-2.60;99.90;;;;;;6183534;23;20044;-84
2022/03/04 03:08:43;;;;;;;35.20;15.55;;;-2.50;99.90;;;;;;6184091;23;20095;-82
2022/03/04 03:11:31;;;;;;;26.65;14.65;;;-2.30;99.90;;;;;;6160071;23;20055;-82
2022/03/04 03:14:18;;;;;;;31.98;14.98;;;-2.30;99.90;;;;;;6161109;23;20088;-82
2022/03/04 03:17:05;;;;;;;28.13;15.50;;;-2.40;99.90;;;;;;6183415;23;20024;-84
2022/03/04 03:19:55;;;;;;;34.47;16.15;;;-2.50;99.90;;;;;;6184444;23;20025;-84
2022/03/04 03:22:47;;;;;;;32.47;16.65;;;-2.60;99.90;;;;;;6182088;23;20107;-84
2022/03/04 03:25:34;;;;;;;32.63;16.00;;;-2.70;99.90;;;;;;6182022;23;20040;-84
2022/03/04 03:28:24;;;;;;;31.13;15.45;;;-2.90;99.90;;;;;;6183969;23;20036;-83
2022/03/04 03:31:11;;;;;;;33.00;16.60;;;-3.00;99.90;;;;;;6184396;23;20219;-84
2022/03/04 03:33:58;;;;;;;37.38;17.45;;;-3.00;99.90;;;;;;6183247;23;20110;-83
2022/03/04 03:36:45;;;;;;;33.10;16.65;;;-3.10;99.90;;;;;;6183505;23;20024;-83
2022/03/04 03:39:33;;;;;;;29.48;16.83;;;-3.20;99.90;;;;;;6183765;23;20040;-83
2022/03/04 03:42:22;;;;;;;30.75;17.58;;;-3.20;99.90;;;;;;6184512;23;20443;-83
2022/03/04 03:45:13;;;;;;;32.70;17.13;;;-3.30;99.90;;;;;;6182896;23;20025;-83
2022/03/04 03:48:00;;;;;;;36.03;16.30;;;-3.30;99.90;;;;;;6181278;23;20051;-83
2022/03/04 03:50:48;;;;;;;29.98;16.60;;;-3.30;99.90;;;;;;6157458;23;20025;-86
2022/03/04 03:53:35;;;;;;;31.65;16.85;;;-3.30;99.90;;;;;;6155242;23;20144;-84
2022/03/04 03:56:22;;;;;;;36.97;17.02;;;-3.30;99.90;;;;;;6160008;23;20025;-83
2022/03/04 03:59:09;;;;;;;32.65;16.50;;;-3.30;99.90;;;;;;6183697;23;20077;-84
2022/03/04 04:01:58;;;;;;;32.90;16.85;;;-3.30;99.90;;;;;;6183349;23;20043;-83
2022/03/04 04:04:46;;;;;;;31.65;16.85;;;-3.40;99.90;;;;;;6184377;23;20104;-82
2022/03/04 04:07:36;;;;;;;32.95;17.13;;;-3.40;99.90;;;;;;6186463;23;20029;-84
2022/03/04 04:10:23;;;;;;;37.17;18.67;;;-3.40;99.90;;;;;;6184844;23;20334;-83
2022/03/04 04:13:15;;;;;;;30.50;16.50;;;-3.40;99.90;;;;;;6186747;23;20089;-84
2022/03/04 04:16:02;;;;;;;32.97;17.85;;;-3.50;99.90;;;;;;6184828;23;20021;-84
2022/03/04 04:18:52;;;;;;;30.10;16.98;;;-3.50;99.90;;;;;;6183779;23;20049;-83
2022/03/04 04:21:39;;;;;;;31.70;17.15;;;-3.60;99.90;;;;;;6186448;23;20029;-83
2022/03/04 04:24:27;;;;;;;36.53;18.55;;;-3.60;99.90;;;;;;6184288;23;20045;-84
2022/03/04 04:27:19;;;;;;;35.17;17.63;;;-3.60;99.90;;;;;;6186419;23;20029;-84
2022/03/04 04:30:07;;;;;;;34.60;19.15;;;-3.70;99.90;;;;;;6184381;23;20052;-84
2022/03/04 04:32:57;;;;;;;35.60;18.20;;;-3.80;99.90;;;;;;6183192;23;20028;-83
2022/03/04 04:35:44;;;;;;;36.13;17.92;;;-3.70;99.90;;;;;;6164286;23;20036;-83
2022/03/04 04:38:34;;;;;;;38.75;19.30;;;-3.80;99.90;;;;;;6185471;23;20051;-84
2022/03/04 04:41:22;;;;;;;39.17;18.77;;;-3.80;99.90;;;;;;6185142;23;20029;-83
2022/03/04 04:44:10;;;;;;;36.45;20.05;;;-3.80;99.90;;;;;;6163693;23;20021;-84
2022/03/04 04:46:57;;;;;;;40.25;19.30;;;-3.80;99.90;;;;;;6185799;23;20083;-84
2022/03/04 04:49:44;;;;;;;41.05;19.55;;;-3.80;99.90;;;;;;6185679;23;20329;-83
2022/03/04 04:52:32;;;;;;;42.80;20.17;;;-3.80;99.90;;;;;;6183433;23;20360;-83
2022/03/04 04:55:25;;;;;;;36.85;19.88;;;-3.90;99.90;;;;;;6185079;23;20040;-83
2022/03/04 04:58:12;;;;;;;36.17;19.02;;;-3.90;99.90;;;;;;6183714;23;20044;-84
2022/03/04 05:01:00;;;;;;;37.50;18.20;;;-3.90;99.90;;;;;;6185483;23;20032;-83
2022/03/04 05:03:47;;;;;;;43.67;20.52;;;-4.00;99.90;;;;;;6162887;23;20039;-84
2022/03/04 05:06:34;;;;;;;36.40;18.75;;;-4.00;99.90;;;;;;6184326;23;20025;-84
2022/03/04 05:09:21;;;;;;;43.08;19.58;;;-4.00;99.90;;;;;;6183876;23;20043;-82
2022/03/04 05:12:11;;;;;;;37.00;18.77;;;-4.00;99.90;;;;;;6185091;23;20480;-84
2022/03/04 05:14:58;;;;;;;38.10;19.73;;;-4.00;99.90;;;;;;6162178;23;20439;-84
2022/03/04 05:17:50;;;;;;;39.35;19.92;;;-4.00;99.90;;;;;;6185145;23;20029;-84
2022/03/04 05:20:39;;;;;;;37.33;19.00;;;-4.10;99.90;;;;;;6162609;23;20332;-84
2022/03/04 05:26:35;;;;;;;38.83;19.25;;;-4.10;99.90;;;;;;6184863;23;20033;-84
2022/03/04 05:29:22;;;;;;;42.47;19.65;;;-4.10;99.90;;;;;;6163837;23;20032;-83
2022/03/04 05:32:10;;;;;;;41.20;19.85;;;-4.20;99.90;;;;;;6163758;23;20021;-84
2022/03/04 05:34:57;;;;;;;34.17;18.50;;;-4.20;99.90;;;;;;6197836;23;20021;-84
2022/03/04 05:37:49;;;;;;;43.38;19.90;;;-4.20;99.90;;;;;;6197817;23;20036;-84
2022/03/04 05:40:36;;;;;;;45.90;20.30;;;-4.30;99.90;;;;;;6197299;23;20075;-84
2022/03/04 05:43:25;;;;;;;39.88;19.35;;;-4.30;99.90;;;;;;6198012;23;20029;-85
2022/03/04 05:46:15;;;;;;;38.35;20.48;;;-4.30;99.90;;;;;;6205575;23;20048;-82
2022/03/04 05:49:03;;;;;;;41.50;19.48;;;-4.30;99.90;;;;;;6197827;23;20103;-83
2022/03/04 05:51:50;;;;;;;38.10;19.30;;;-4.20;99.90;;;;;;6193163;23;20028;-84
2022/03/04 05:54:38;;;;;;;42.47;20.88;;;-4.00;99.90;;;;;;6214606;23;20025;-84
2022/03/04 05:57:25;;;;;;;40.65;19.05;;;-3.70;99.90;;;;;;6195299;23;20020;-84
2022/03/04 06:00:13;;;;;;;38.50;19.63;;;-3.50;99.90;;;;;;6215475;23;20031;-84
2022/03/04 06:03:01;;;;;;;44.35;20.02;;;-3.40;99.90;;;;;;6214836;23;20029;-83
2022/03/04 06:05:50;;;;;;;40.30;20.00;;;-3.40;99.90;;;;;;6195655;23;20312;-85
2022/03/04 06:08:37;;;;;;;37.22;19.65;;;-3.40;99.90;;;;;;6196112;23;20059;-82
2022/03/04 06:11:25;;;;;;;41.75;19.85;;;-3.50;99.90;;;;;;6216785;23;20492;-83
2022/03/04 06:14:13;;;;;;;37.85;19.60;;;-3.50;99.90;;;;;;6194596;23;20036;-85
2022/03/04 06:17:00;;;;;;;41.05;19.50;;;-3.60;99.90;;;;;;6215729;23;20025;-84
2022/03/04 06:19:56;;;;;;;40.22;20.13;;;-3.60;99.90;;;;;;6215849;23;20024;-84
2022/03/04 06:22:44;;;;;;;43.17;20.05;;;-3.60;99.90;;;;;;6215642;23;20037;-84
2022/03/04 06:25:31;;;;;;;40.15;19.98;;;-3.70;99.90;;;;;;6215118;23;20035;-86
2022/03/04 06:28:19;;;;;;;42.50;21.60;;;-3.70;99.90;;;;;;6196185;23;20024;-83
2022/03/04 06:31:06;;;;;;;39.88;20.70;;;-3.70;99.90;;;;;;6215929;23;20036;-84
2022/03/04 06:33:56;;;;;;;42.20;20.52;;;-3.70;99.90;;;;;;6197903;23;20024;-84
2022/03/04 06:36:43;;;;;;;39.38;20.55;;;-3.70;99.90;;;;;;6200621;23;20134;-83
2022/03/04 06:39:32;;;;;;;35.58;18.67;;;-3.60;99.90;;;;;;6215695;23;20032;-85
2022/03/04 06:42:26;;;;;;;41.33;21.25;;;-3.50;99.90;;;;;;6215003;23;20103;-85
2022/03/04 06:45:13;;;;;;;48.55;20.42;;;-3.40;99.90;;;;;;6195373;23;20056;-85
2022/03/04 06:48:00;;;;;;;35.08;19.10;;;-3.30;99.90;;;;;;6218866;23;20050;-84
2022/03/04 06:50:51;;;;;;;39.33;19.70;;;-3.20;99.90;;;;;;6218898;23;20074;-85
2022/03/04 06:53:39;;;;;;;40.90;20.55;;;-3.00;99.90;;;;;;6215856;23;20053;-85
2022/03/04 06:56:26;;;;;;;39.35;20.90;;;-2.60;99.90;;;;;;6198333;23;20025;-85
2022/03/04 06:59:16;;;;;;;40.58;19.73;;;-1.90;99.90;;;;;;6197319;23;20363;-86
2022/03/04 07:02:07;;;;;;;41.75;19.52;;;-1.00;99.90;;;;;;6198760;23;20020;-86
2022/03/04 07:04:54;;;;;;;42.42;19.95;;;-0.10;99.90;;;;;;6178859;23;20020;-86
2022/03/04 07:07:42;;;;;;;35.42;20.33;;;0.40;99.90;;;;;;6197168;23;20035;-85
2022/03/04 07:10:29;;;;;;;34.05;19.13;;;1.00;99.70;;;;;;6199015;23;20021;-85
2022/03/04 07:13:19;;;;;;;33.00;19.98;;;1.50;96.10;;;;;;6218153;23;20069;-85
2022/03/04 07:16:06;;;;;;;35.75;18.08;;;1.90;93.90;;;;;;6217804;23;20054;-86
2022/03/04 07:18:53;;;;;;;31.92;18.50;;;2.00;90.90;;;;;;6197478;23;20079;-87
2022/03/04 07:21:41;;;;;;;36.47;19.88;;;1.90;90.10;;;;;;6219321;23;20083;-85
2022/03/04 07:24:29;;;;;;;38.97;21.13;;;2.00;90.00;;;;;;6203239;23;20063;-85
2022/03/04 07:27:18;;;;;;;31.25;18.27;;;2.30;87.50;;;;;;6199837;23;20032;-87
2022/03/04 07:30:11;;;;;;;36.28;19.02;;;2.70;83.20;;;;;;6203010;23;20024;-87
2022/03/04 07:33:00;;;;;;;38.30;20.73;;;2.70;82.40;;;;;;6223822;23;20036;-87
2022/03/04 07:35:47;;;;;;;35.50;19.88;;;3.20;80.50;;;;;;6223066;23;20025;-89
2022/03/04 07:38:35;;;;;;;37.10;20.02;;;3.50;77.10;;;;;;6184354;23;20047;-87
2022/03/04 07:41:24;;;;;;;71.07;22.25;;;3.70;74.90;;;;;;6223957;23;20029;-86
2022/03/04 07:44:13;;;;;;;37.95;20.13;;;3.90;74.00;;;;;;6205296;23;20024;-88
2022/03/04 07:47:01;;;;;;;32.53;19.25;;;4.00;74.50;;;;;;6223779;23;20025;-88
2022/03/04 07:49:48;;;;;;;35.58;21.15;;;4.60;71.50;;;;;;6178204;23;20028;-87
2022/03/04 07:52:36;;;;;;;34.03;18.77;;;4.70;70.50;;;;;;6217537;23;20032;-88
2022/03/04 07:55:29;;;;;;;33.38;19.52;;;4.90;69.80;;;;;;6219767;23;20419;-88
2022/03/04 07:58:19;;;;;;;32.35;19.25;;;5.00;68.10;;;;;;6218010;23;20044;-88
2022/03/04 08:01:09;;;;;;;33.58;18.95;;;5.20;66.60;;;;;;6199881;23;20025;-88
2022/03/04 08:04:15;;;;;;;28.80;18.33;;;5.40;65.50;;;;;;6202288;23;20032;-87
2022/03/04 08:07:04;;;;;;;33.85;19.15;;;5.60;63.60;;;;;;6218982;23;20151;-87
2022/03/04 08:09:51;;;;;;;31.60;19.05;;;5.70;62.60;;;;;;6214906;23;20104;-88
2022/03/04 08:12:39;;;;;;;37.05;20.33;;;6.00;62.10;;;;;;6216891;23;20083;-88
2022/03/04 08:15:27;;;;;;;34.17;20.50;;;5.90;60.80;;;;;;6218337;23;20028;-89
2022/03/04 08:18:15;;;;;;;34.97;20.60;;;6.20;60.80;;;;;;6206439;23;20032;-88
2022/03/04 08:21:03;;;;;;;32.15;20.83;;;6.40;58.80;;;;;;6230163;23;20040;-87
2022/03/04 08:23:51;;;;;;;35.50;19.90;;;6.30;58.20;;;;;;6197908;23;20032;-87
2022/03/04 08:26:41;;;;;;;33.60;19.02;;;6.30;59.00;;;;;;6197183;23;20028;-88
2022/03/04 08:29:29;;;;;;;33.42;20.55;;;6.90;57.20;;;;;;6204469;23;20039;-88
2022/03/04 08:32:23;;;;;;;33.67;20.00;;;7.20;57.00;;;;;;6222472;23;20025;-87
2022/03/04 08:35:17;;;;;;;35.05;19.90;;;7.60;56.70;;;;;;6199521;23;20048;-89
2022/03/04 08:38:05;;;;;;;38.88;21.05;;;7.20;56.80;;;;;;6218949;23;20025;-88
2022/03/04 08:40:54;;;;;;;37.42;21.60;;;7.30;56.30;;;;;;6217564;23;20028;-86
2022/03/04 08:43:42;;;;;;;37.35;20.63;;;7.10;55.70;;;;;;6218763;23;20024;-86
2022/03/04 08:46:30;;;;;;;36.53;20.40;;;7.10;57.00;;;;;;6201721;23;20024;-89
2022/03/04 08:49:21;;;;;;;35.28;20.10;;;7.40;56.50;;;;;;6222769;23;20052;-88
2022/03/04 08:52:08;;;;;;;34.35;20.45;;;7.30;55.60;;;;;;6205083;23;20029;-88
2022/03/04 08:54:56;;;;;;;37.20;20.90;;;7.00;56.90;;;;;;6211318;23;20051;-89
2022/03/04 08:57:47;;;;;;;40.90;20.17;;;6.90;57.70;;;;;;6206453;23;20100;-87
2022/03/04 09:00:37;;;;;;;34.78;18.90;;;6.80;57.60;;;;;;6198757;23;20024;-87
2022/03/04 09:03:26;;;;;;;35.17;20.38;;;7.00;57.20;;;;;;6225225;23;20103;-88
2022/03/04 09:06:14;;;;;;;37.67;21.35;;;7.40;56.70;;;;;;6222282;23;20048;-88
2022/03/04 09:09:01;;;;;;;38.25;20.35;;;7.10;57.60;;;;;;6204307;23;20028;-89
2022/03/04 09:11:49;;;;;;;33.67;19.65;;;7.10;57.80;;;;;;6223831;23;20035;-87
2022/03/04 09:14:39;;;;;;;35.60;21.00;;;7.20;57.70;;;;;;6224849;23;20076;-87
2022/03/04 09:17:27;;;;;;;37.50;20.63;;;7.50;56.60;;;;;;6203031;23;20100;-88
2022/03/04 09:20:16;;;;;;;41.35;21.45;;;7.80;55.80;;;;;;6198238;23;20040;-87
2022/03/04 09:23:06;;;;;;;33.22;20.52;;;7.70;53.50;;;;;;6201667;23;20032;-87
2022/03/04 09:25:59;;;;;;;30.88;19.15;;;8.10;54.60;;;;;;6224635;23;20039;-88
2022/03/04 09:28:47;;;;;;;36.50;20.38;;;8.90;51.70;;;;;;6223784;23;20024;-89
2022/03/04 09:31:37;;;;;;;36.88;20.23;;;9.70;50.70;;;;;;6206292;23;20055;-90
2022/03/04 09:34:39;;;;;;;35.10;19.67;;;10.70;48.40;;;;;;6215195;23;20066;-89
2022/03/04 09:37:28;;;;;;;29.27;19.02;;;12.00;46.50;;;;;;6239509;22;20019;-85
2022/03/04 09:40:19;;;;;;;30.10;19.88;;;11.80;42.70;;;;;;6231891;23;20071;-89
2022/03/04 09:43:09;;;;;;;30.80;20.52;;;12.10;42.10;;;;;;6207906;23;20439;-87
2022/03/04 09:45:58;;;;;;;30.73;19.73;;;12.10;42.40;;;;;;6223522;23;20067;-86
2022/03/04 09:49:01;;;;;;;;;;;;;;;;;;;;;
2022/03/04 09:52:08;;;;;;;34.05;19.60;;;13.40;39.90;;;;;;6227432;23;20028;-90
2022/03/04 09:54:58;;;;;;;32.13;19.67;;;14.10;38.60;;;;;;6225851;23;20031;-90
2022/03/04 09:57:53;;;;;;;35.67;20.30;;;13.50;38.40;;;;;;6209177;23;20048;-90
2022/03/04 10:01:04;;;;;;;29.60;19.77;;;13.20;40.30;;;;;;6229130;23;20104;-89
2022/03/04 10:04:07;;;;;;;30.75;19.58;;;13.00;39.90;;;;;;6209222;23;20020;-90
2022/03/04 10:07:17;;;;;;;34.65;20.10;;;14.30;38.30;;;;;;6205542;23;20284;-87
2022/03/04 10:10:10;;;;;;;26.77;18.50;;;15.10;34.90;;;;;;6222157;23;20359;-90
2022/03/04 10:13:03;;;;;;;29.80;19.00;;;14.80;35.80;;;;;;6207396;23;20025;-88
2022/03/04 10:16:07;;;;;;;33.65;18.80;;;14.50;36.40;;;;;;6209031;23;20059;-89
2022/03/04 10:19:20;;;;;;;32.42;17.88;;;14.10;35.20;;;;;;6204091;23;20040;-88
2022/03/04 10:22:08;;;;;;;29.77;19.13;;;14.10;35.70;;;;;;6225999;23;20096;-89
2022/03/04 10:24:59;;;;;;;27.60;18.45;;;14.30;35.00;;;;;;6224776;23;20095;-88
2022/03/04 10:28:24;;;;;;;26.48;17.65;;;14.40;34.90;;;;;;6229672;23;20043;-88
2022/03/04 10:31:15;;;;;;;29.75;18.95;;;15.00;33.80;;;;;;6225325;23;20017;-89
2022/03/04 10:34:28;;;;;;;31.75;18.10;;;15.70;30.50;;;;;;6206965;23;20029;-90
2022/03/04 10:37:58;;;;;;;;;;;;;;;;;;;;;
2022/03/04 10:41:22;;;;;;;31.88;19.08;;;16.10;31.70;;;;;;6131328;23;20092;-89
2022/03/04 10:44:38;;;;;;;27.65;18.20;;;15.00;31.90;;;;;;6131839;23;20030;-89
2022/03/04 10:47:51;;;;;;;25.05;17.30;;;14.90;32.30;;;;;;6132546;23;20105;-88
2022/03/04 10:50:50;;;;;;;28.25;17.48;;;15.00;32.10;;;;;;6136363;23;20425;-88
2022/03/04 10:53:53;;;;;;;;;;;;;;;;;;;;;
2022/03/04 11:00:07;;;;;;;31.02;17.38;;;14.70;33.30;;;;;;6184111;23;20052;-87
2022/03/04 11:03:05;;;;;;;26.67;18.38;;;14.80;33.00;;;;;;6224310;23;20028;-89
2022/03/04 11:06:38;;;;;;;;;;;;;;;;;;;;;
2022/03/04 11:09:45;;;;;;;26.60;16.92;;;14.70;33.80;;;;;;6218768;23;20082;-90
2022/03/04 11:16:07;;;;;;;29.93;18.60;;;15.50;31.20;;;;;;6218453;23;20039;-89
2022/03/04 11:19:01;;;;;;;30.63;17.63;;;16.10;30.70;;;;;;6220815;23;20327;-89
2022/03/04 11:21:53;;;;;;;27.30;18.40;;;15.60;32.00;;;;;;6230584;23;20093;-89
2022/03/04 11:25:15;;;;;;;27.80;17.80;;;16.70;31.60;;;;;;6232041;23;20030;-88
2022/03/04 11:32:07;;;;;;;26.48;17.27;;;17.10;30.30;;;;;;6210655;23;20025;-88
2022/03/04 11:35:54;;;;;;;27.33;18.73;;;17.60;28.30;;;;;;6219265;23;20078;-89
2022/03/04 11:39:27;;;;;;;26.80;18.25;;;16.60;29.70;;;;;;6079675;23;20026;-89
2022/03/04 11:42:36;;;;;;;27.08;16.55;;;16.20;32.10;;;;;;6123165;23;20101;-89
2022/03/04 11:45:34;;;;;;;25.65;17.08;;;16.50;30.00;;;;;;6198892;23;20035;-89
2022/03/04 11:49:38;;;;;;;30.02;17.95;;;16.30;29.60;;;;;;6209635;23;20028;-89
2022/03/04 11:52:49;;;;;;;28.00;17.80;;;16.10;29.90;;;;;;6169974;23;20025;-88
2022/03/04 11:56:48;;;;;;;;;;;;;;;;;;;;;
2022/03/04 12:00:14;;;;;;;28.15;17.80;;;16.60;29.20;;;;;;6216795;23;20025;-91
2022/03/04 12:03:16;;;;;;;33.60;18.88;;;16.90;29.00;;;;;;6167356;23;20020;-89
2022/03/04 12:06:10;;;;;;;25.77;18.27;;;17.50;28.70;;;;;;6219430;23;20028;-88
2022/03/04 12:09:46;;;;;;;;;;;;;;;;;;;;;
2022/03/04 12:13:38;;;;;;;27.23;17.52;;;16.70;28.90;;;;;;6222953;23;20079;-89
2022/03/04 12:16:56;;;;;;;25.30;16.85;;;18.10;27.00;;;;;;6224829;23;20076;-89
2022/03/04 12:20:10;;;;;;;25.13;16.80;;;18.90;27.20;;;;;;6225853;23;20024;-89
2022/03/04 12:23:09;;;;;;;;;;;18.70;27.30;;;;;;6201673;23;20051;-89
2022/03/04 12:26:06;;;;;;;24.17;14.63;;;16.80;27.70;;;;;;6225559;23;20223;-90
2022/03/04 12:29:51;;;;;;;24.23;15.57;;;17.20;26.10;;;;;;6227751;23;20024;-89
2022/03/04 12:32:52;;;;;;;25.17;16.98;;;17.40;28.30;;;;;;6208761;23;20025;-88
2022/03/04 12:35:58;;;;;;;28.30;15.85;;;16.80;28.40;;;;;;6223078;23;20112;-88
2022/03/04 12:39:02;;;;;;;25.35;16.92;;;15.90;28.50;;;;;;6224194;23;20020;-89
2022/03/04 12:42:19;;;;;;;26.65;16.35;;;14.90;30.80;;;;;;6209757;23;20028;-89
2022/03/04 12:45:19;;;;;;;26.52;16.85;;;16.80;27.60;;;;;;6203789;23;20395;-89
2022/03/04 12:48:10;;;;;;;27.38;16.67;;;18.00;26.10;;;;;;6205144;23;20090;-89
2022/03/04 12:51:16;;;;;;;25.73;17.33;;;18.30;26.80;;;;;;6222689;23;20107;-90
2022/03/04 12:54:44;;;;;;;24.70;15.88;;;18.50;26.80;;;;;;6221967;23;20111;-89
2022/03/04 12:57:35;;;;;;;23.88;15.80;;;17.60;27.40;;;;;;6204081;23;20021;-90
2022/03/04 13:00:34;;;;;;;23.42;16.05;;;17.70;26.50;;;;;;6227527;23;20055;-89
2022/03/04 13:03:31;;;;;;;21.92;13.90;;;18.20;25.30;;;;;;6224998;23;20047;-89
2022/03/04 13:06:23;;;;;;;20.55;13.68;;;18.70;25.90;;;;;;6226866;23;20028;-87
2022/03/04 13:09:12;;;;;;;21.15;14.13;;;18.20;25.10;;;;;;6223172;23;20373;-90
2022/03/04 13:12:10;;;;;;;19.67;14.10;;;17.90;26.30;;;;;;6223909;23;20024;-91
2022/03/04 13:15:13;;;;;;;19.63;13.75;;;18.00;26.40;;;;;;6203012;23;20030;-87
2022/03/04 13:18:02;;;;;;;20.15;13.27;;;17.30;25.80;;;;;;6203579;23;20020;-88
2022/03/04 13:21:04;;;;;;;20.27;13.48;;;17.30;26.70;;;;;;6183003;23;20316;-89
2022/03/04 13:24:06;;;;;;;24.33;13.45;;;16.90;25.90;;;;;;6201834;23;20025;-89
2022/03/04 13:27:22;;;;;;;20.13;13.23;;;16.40;27.40;;;;;;6205798;23;20028;-89
2022/03/04 13:30:23;;;;;;;23.30;13.52;;;17.30;26.30;;;;;;6203214;23;20044;-87
2022/03/04 13:33:42;;;;;;;19.95;13.40;;;18.00;25.60;;;;;;6230372;23;20029;-89
2022/03/04 13:37:02;;;;;;;;;;;;;;;;;;;;;
2022/03/04 13:40:06;;;;;;;18.05;13.00;;;18.80;25.00;;;;;;6219517;23;20048;-87
2022/03/04 13:42:58;;;;;;;22.65;12.23;;;16.90;25.90;;;;;;6217824;23;20546;-89
2022/03/04 13:45:46;;;;;;;23.40;13.73;;;16.10;26.00;;;;;;6229833;23;20028;-88
2022/03/04 13:48:35;;;;;;;21.30;13.15;;;15.70;26.80;;;;;;6226881;23;20128;-89
2022/03/04 13:51:44;;;;;;;;;;;;;;;;;;;;;
2022/03/04 13:55:00;;;;;;;19.85;13.82;;;16.60;27.10;;;;;;6215779;23;20024;-88
2022/03/04 13:58:28;;;;;;;19.90;13.20;;;17.40;26.20;;;;;;6163508;23;20016;-89
2022/03/04 14:01:23;;;;;;;19.55;13.18;;;18.30;23.70;;;;;;6219467;23;20041;-89
2022/03/04 14:04:14;;;;;;;21.50;13.73;;;18.30;24.00;;;;;;6199385;23;20094;-89
2022/03/04 14:07:05;;;;;;;17.45;12.20;;;17.40;25.40;;;;;;6212872;22;20084;-81
2022/03/04 14:09:56;;;;;;;20.27;13.43;;;16.90;25.50;;;;;;6212760;23;20024;-87
2022/03/04 14:12:46;;;;;;;19.50;13.25;;;16.50;26.10;;;;;;6215391;23;20028;-88
2022/03/04 14:15:51;;;;;;;25.23;15.45;;;16.50;26.60;;;;;;6218570;23;20028;-90
2022/03/04 14:18:43;;;;;;;23.67;15.93;;;16.70;27.50;;;;;;6196792;23;20083;-87
2022/03/04 14:21:35;;;;;;;25.42;15.68;;;16.70;27.70;;;;;;6198083;23;20443;-84
2022/03/04 14:24:24;;;;;;;23.25;14.85;;;16.90;27.00;;;;;;6218262;23;20068;-89
2022/03/04 14:27:20;;;;;;;24.13;15.18;;;17.30;26.90;;;;;;6219661;23;20029;-89
2022/03/04 14:30:15;;;;;;;24.98;16.15;;;17.30;26.60;;;;;;6196190;23;20035;-88
2022/03/04 14:33:04;;;;;;;22.45;15.30;;;17.20;26.50;;;;;;6220296;23;20080;-89
2022/03/04 14:35:55;;;;;;;22.45;14.43;;;17.40;26.40;;;;;;6215519;23;20021;-87
2022/03/04 14:38:47;;;;;;;23.90;14.73;;;17.60;26.80;;;;;;6214832;23;20124;-86
2022/03/04 14:41:36;;;;;;;23.45;14.27;;;17.20;25.90;;;;;;6195686;23;20024;-88
2022/03/04 14:44:24;;;;;;;22.77;13.45;;;17.40;26.10;;;;;;6220831;23;20124;-89
2022/03/04 14:47:12;;;;;;;22.52;14.57;;;17.50;25.90;;;;;;6198743;23;20116;-88
2022/03/04 14:50:00;;;;;;;23.15;14.63;;;17.10;26.20;;;;;;6198176;23;20316;-89
2022/03/04 14:52:49;;;;;;;21.75;14.95;;;16.40;27.20;;;;;;6176704;23;20032;-88
2022/03/04 14:55:47;;;;;;;23.38;14.20;;;16.30;26.90;;;;;;6216509;23;20025;-88
2022/03/04 14:58:37;;;;;;;25.30;15.00;;;16.40;27.00;;;;;;6217621;23;20098;-90
2022/03/04 15:01:27;;;;;;;23.10;14.52;;;15.50;27.70;;;;;;6196476;23;20020;-88
2022/03/04 15:04:15;;;;;;;23.25;14.57;;;15.40;28.00;;;;;;6195930;23;20506;-86
2022/03/04 15:07:05;;;;;;;20.98;14.52;;;16.10;27.50;;;;;;6199000;23;20075;-86
2022/03/04 15:09:55;;;;;;;24.73;14.23;;;15.80;27.00;;;;;;6218316;23;20032;-87
2022/03/04 15:12:55;;;;;;;21.48;14.25;;;16.00;27.30;;;;;;6198893;23;20412;-85